Time;durP1;ratioP1;P1;durP2;ratioP2;P2;SDS_P1;SDS_P2;PMS_P1;PMS_P2;Temp;Humidity;BMP_temperature;BMP_pressure;BME280_temperature;BME280_humidity;BME280_pressure;Samples;Min_cycle;Max_cycle;Signal;HPM_P1;HPM_P2
2021/01/12 00:00:29;;;;;;;43.25;26.48;;;;;;;0.12;77.24;100977.41;1712818;84;21323;-80
2021/01/12 00:03:35;;;;;;;43.52;26.17;;;;;;;0.16;77.45;100978.96;1713657;84;21287;-80
2021/01/12 00:06:41;;;;;;;42.90;23.05;;;;;;;0.12;77.61;100976.55;1712545;84;21792;-80
2021/01/12 00:09:47;;;;;;;38.42;21.42;;;;;;;0.08;77.79;100969.63;1722978;82;21315;-80
2021/01/12 00:12:53;;;;;;;34.55;20.88;;;;;;;0.08;77.80;100965.59;1739167;82;21297;-80
2021/01/12 00:16:00;;;;;;;39.18;22.75;;;;;;;-0.03;77.52;100960.87;1739179;82;21304;-81
2021/01/12 00:19:07;;;;;;;42.17;24.10;;;;;;;-0.10;77.55;100959.00;1739172;82;21297;-79
2021/01/12 00:22:17;;;;;;;37.05;21.40;;;;;;;-0.12;77.57;100952.88;1739160;82;21824;-80
2021/01/12 00:25:22;;;;;;;34.90;21.48;;;;;;;-0.16;77.53;100946.42;1737634;82;21332;-80
2021/01/12 00:28:28;;;;;;;35.60;21.75;;;;;;;-0.25;77.71;100943.80;1737933;82;21876;-80
2021/01/12 00:31:35;;;;;;;33.70;19.80;;;;;;;-0.26;77.92;100936.22;1739187;82;21312;-80
2021/01/12 00:34:40;;;;;;;29.07;16.40;;;;;;;-0.20;77.75;100943.53;1740139;82;22280;-79
2021/01/12 00:37:45;;;;;;;27.80;16.65;;;;;;;-0.21;77.37;100937.77;1740128;82;21796;-80
2021/01/12 00:40:51;;;;;;;30.27;19.60;;;;;;;-0.22;77.21;100942.77;1740148;82;21158;-80
2021/01/12 00:43:56;;;;;;;28.75;15.15;;;;;;;-0.21;77.19;100935.08;1739989;82;21202;-80
2021/01/12 00:47:02;;;;;;;26.60;14.00;;;;;;;-0.17;76.62;100933.95;1740111;82;21253;-80
2021/01/12 00:50:08;;;;;;;22.65;12.93;;;;;;;-0.15;76.36;100929.33;1739954;82;21146;-81
2021/01/12 00:53:13;;;;;;;23.98;14.93;;;;;;;-0.16;75.70;100932.98;1740125;82;21142;-80
2021/01/12 00:56:23;;;;;;;25.55;14.70;;;;;;;-0.22;75.51;100934.70;1740024;82;21681;-80
2021/01/12 00:59:28;;;;;;;17.97;11.10;;;;;;;-0.20;75.67;100934.12;1740214;82;21812;-80
2021/01/12 01:02:33;;;;;;;22.20;14.23;;;;;;;-0.13;75.82;100934.15;1740035;82;21161;-80
2021/01/12 01:05:39;;;;;;;25.02;15.05;;;;;;;-0.11;75.65;100929.53;1740115;82;21328;-80
2021/01/12 01:08:45;;;;;;;27.37;16.00;;;;;;;-0.13;75.54;100932.32;1740144;82;21300;-80
2021/01/12 01:11:52;;;;;;;25.12;16.27;;;;;;;-0.09;75.77;100927.63;1745952;82;21327;-80
2021/01/12 01:14:59;;;;;;;24.75;14.50;;;;;;;-0.04;75.81;100926.88;1751248;82;21265;-80
2021/01/12 01:18:05;;;;;;;25.68;14.25;;;;;;;0.01;75.76;100929.28;1749742;82;21748;-80
2021/01/12 01:21:12;;;;;;;21.73;13.90;;;;;;;-0.03;75.04;100929.94;1738434;82;21260;-80
2021/01/12 01:24:16;;;;;;;24.63;14.83;;;;;;;-0.04;74.92;100933.59;1734459;83;21319;-80
2021/01/12 01:27:21;;;;;;;24.40;14.35;;;;;;;-0.05;74.88;100930.49;1731208;83;21257;-80
2021/01/12 01:30:28;;;;;;;25.25;14.33;;;;;;;-0.06;75.21;100934.15;1751292;82;21327;-80
2021/01/12 01:33:32;;;;;;;19.73;13.40;;;;;;;-0.04;75.24;100934.94;1750754;82;21906;-80
2021/01/12 01:36:39;;;;;;;18.67;11.45;;;;;;;0.02;74.80;100935.03;1751221;81;21704;-80
2021/01/12 01:39:45;;;;;;;13.13;8.58;;;;;;;0.03;74.04;100941.66;1718018;83;21343;-81
2021/01/12 01:42:51;;;;;;;14.58;8.18;;;;;;;0.05;73.04;100941.55;1752434;82;21172;-80
2021/01/12 01:45:58;;;;;;;16.50;10.15;;;;;;;0.00;72.03;100935.14;1751784;82;21849;-80
2021/01/12 01:49:04;;;;;;;20.70;11.33;;;;;;;-0.03;71.85;100939.35;1735171;83;21831;-80
2021/01/12 01:52:10;;;;;;;17.40;10.75;;;;;;;-0.06;71.96;100943.56;1719255;83;21336;-81
2021/01/12 01:55:15;;;;;;;16.32;9.58;;;;;;;-0.08;72.04;100940.11;1718760;83;21376;-81
2021/01/12 01:58:22;;;;;;;16.42;9.75;;;;;;;-0.14;71.77;100949.88;1749928;82;21307;-80
2021/01/12 02:01:28;;;;;;;9.70;5.85;;;;;;;-0.22;71.89;100941.42;1750993;82;21338;-80
2021/01/12 02:04:46;;;;;;;8.00;5.42;;;;;;;-0.27;69.65;100945.25;1735110;83;21328;-80
2021/01/12 02:07:51;;;;;;;5.97;3.95;;;;;;;-0.27;68.11;100945.25;1735088;83;21217;-80
2021/01/12 02:10:56;;;;;;;5.65;3.95;;;;;;;-0.26;67.29;100938.91;1735070;83;21304;-80
2021/01/12 02:14:11;;;;;;;7.22;4.80;;;;;;;-0.19;66.68;100938.53;1742994;82;21359;-80
2021/01/12 02:17:17;;;;;;;7.08;4.45;;;;;;;-0.12;66.12;100934.53;1745381;82;21173;-80
2021/01/12 02:20:22;;;;;;;10.10;5.50;;;;;;;-0.09;65.32;100927.63;1745299;82;21229;-80
2021/01/12 02:23:35;;;;;;;4.22;3.10;;;;;;;-0.13;65.90;100917.53;1744615;82;21208;-80
2021/01/12 02:26:41;;;;;;;5.17;3.52;;;;;;;-0.11;64.76;100910.70;1743683;82;21375;-81
2021/01/12 02:29:46;;;;;;;10.72;8.28;;;;;;;-0.03;64.54;100913.31;1743397;82;21233;-80
2021/01/12 02:32:52;;;;;;;20.90;18.48;;;;;;;0.01;64.65;100908.63;1744332;82;21303;-80
2021/01/12 02:35:57;;;;;;;10.18;6.17;;;;;;;0.03;64.56;100913.41;1743225;82;21276;-80
2021/01/12 02:39:05;;;;;;;8.30;5.60;;;;;;;0.02;65.13;100906.31;1743952;82;21249;-80
2021/01/12 02:42:15;;;;;;;8.25;6.12;;;;;;;0.07;65.92;100894.78;1745170;82;21308;-81
2021/01/12 02:45:20;;;;;;;9.33;5.33;;;;;;;0.09;66.06;100918.41;1745415;82;21161;-80
2021/01/12 02:48:26;;;;;;;9.75;6.45;;;;;;;0.08;66.54;100922.06;1745315;82;21217;-80
2021/01/12 02:51:32;;;;;;;12.07;6.37;;;;;;;0.04;66.93;100913.80;1744234;82;21843;-80
2021/01/12 02:54:38;;;;;;;9.10;5.92;;;;;;;0.06;67.27;100921.79;1744232;82;21843;-80
2021/01/12 02:57:44;;;;;;;7.67;5.08;;;;;;;0.01;66.93;100924.77;1743022;82;21328;-80
2021/01/12 03:00:49;;;;;;;8.58;5.42;;;;;;;-0.05;67.18;100916.59;1743036;82;21359;-80
2021/01/12 03:03:55;;;;;;;8.20;6.30;;;;;;;-0.08;67.31;100914.56;1744346;82;21914;-80
2021/01/12 03:07:00;;;;;;;8.13;6.20;;;;;;;-0.16;67.29;100907.44;1744408;82;21300;-80
2021/01/12 03:10:06;;;;;;;23.00;19.00;;;;;;;-0.19;67.11;100902.23;1741764;82;21225;-80
2021/01/12 03:13:11;;;;;;;8.35;6.17;;;;;;;-0.19;67.30;100896.38;1785944;80;21196;-80
2021/01/12 03:16:17;;;;;;;8.28;5.37;;;;;;;-0.20;67.47;100893.30;1762762;81;21903;-80
2021/01/12 03:19:22;;;;;;;10.70;5.65;;;;;;;-0.15;67.43;100884.95;1774881;81;21280;-80
2021/01/12 03:22:27;;;;;;;7.90;4.47;;;;;;;-0.20;67.67;100873.62;1761508;81;21297;-80
2021/01/12 03:25:33;;;;;;;9.90;5.83;;;;;;;-0.26;67.79;100857.39;1773594;81;21224;-80
2021/01/12 03:28:40;;;;;;;9.93;6.45;;;;;;;-0.34;68.25;100844.89;1762776;81;21289;-80
2021/01/12 03:31:46;;;;;;;8.35;5.58;;;;;;;-0.39;69.15;100841.14;1775074;81;21288;-80
2021/01/12 03:34:51;;;;;;;9.78;6.87;;;;;;;-0.41;69.35;100833.66;1762495;81;21221;-81
2021/01/12 03:37:57;;;;;;;10.25;6.25;;;;;;;-0.45;69.36;100832.59;1775098;81;21228;-79
2021/01/12 03:41:03;;;;;;;12.28;7.22;;;;;;;-0.45;69.44;100848.23;1761818;81;21182;-80
2021/01/12 03:44:09;;;;;;;10.80;7.03;;;;;;;-0.41;69.58;100857.85;1775096;81;21182;-80
2021/01/12 03:47:15;;;;;;;10.30;7.05;;;;;;;-0.32;69.75;100859.98;1762930;81;21212;-81
2021/01/12 03:50:22;;;;;;;11.20;8.38;;;;;;;-0.24;69.42;100869.38;1754529;81;21289;-80
2021/01/12 03:53:28;;;;;;;22.07;19.07;;;;;;;-0.26;68.90;100866.31;1763927;81;21784;-81
2021/01/12 03:56:34;;;;;;;31.10;27.58;;;;;;;-0.27;67.88;100871.31;1776125;81;21328;-80
2021/01/12 03:59:39;;;;;;;23.05;20.37;;;;;;;-0.31;67.88;100875.14;1763889;81;21264;-80
2021/01/12 04:02:45;;;;;;;26.25;23.42;;;;;;;-0.37;68.11;100879.56;1755489;81;21828;-81
2021/01/12 04:05:51;;;;;;;20.95;15.05;;;;;;;-0.38;68.58;100880.49;1740337;82;21283;-80
2021/01/12 04:08:57;;;;;;;29.25;21.35;;;;;;;-0.37;68.84;100875.52;1740422;82;21272;-80
2021/01/12 04:12:03;;;;;;;18.95;11.33;;;;;;;-0.36;69.03;100881.77;1738918;82;21165;-80
2021/01/12 04:15:09;;;;;;;18.98;12.30;;;;;;;-0.39;69.23;100870.70;1739980;82;21355;-80
2021/01/12 04:18:15;;;;;;;18.48;12.15;;;;;;;-0.46;69.95;100878.77;1759906;80;21768;-80
2021/01/12 04:21:21;;;;;;;18.90;11.97;;;;;;;-0.50;70.53;100883.94;1750837;81;21232;-81
2021/01/12 04:24:27;;;;;;;14.55;11.50;;;;;;;-0.48;70.95;100894.10;1731158;83;21265;-81
2021/01/12 04:27:34;;;;;;;22.32;18.02;;;;;;;-0.49;71.27;100891.03;1731320;81;21290;-80
2021/01/12 04:30:39;;;;;;;14.83;10.63;;;;;;;-0.48;71.23;100884.69;1740804;81;21899;-80
2021/01/12 04:33:44;;;;;;;11.40;8.58;;;;;;;-0.48;70.34;100882.48;1710360;84;21852;-80
2021/01/12 04:36:51;;;;;;;55.12;49.13;;;;;;;-0.50;67.84;100877.70;1713747;83;21294;-80
2021/01/12 04:39:59;;;;;;;15.40;11.75;;;;;;;-0.56;67.55;100867.70;1713757;83;21179;-79
2021/01/12 04:43:08;;;;;;;15.75;12.55;;;;;;;-0.60;68.22;100872.01;1713661;83;21313;-79
2021/01/12 04:46:15;;;;;;;15.63;12.37;;;;;;;-0.60;69.25;100878.73;1713944;83;21183;-80
2021/01/12 04:49:21;;;;;;;24.15;19.73;;;;;;;-0.62;68.58;100885.52;1712408;83;21305;-80
2021/01/12 04:52:27;;;;;;;19.42;14.40;;;;;;;-0.72;68.35;100899.59;1738407;82;21931;-80
2021/01/12 04:55:33;;;;;;;15.93;9.75;;;;;;;-0.77;67.62;100910.12;1739895;82;21223;-79
2021/01/12 04:58:48;;;;;;;23.95;18.95;;;;;;;-0.78;67.36;100917.80;1738703;82;21375;-79
2021/01/12 05:01:53;;;;;;;19.37;17.25;;;;;;;-0.80;67.50;100914.35;1761278;81;21245;-80
2021/01/12 05:04:59;;;;;;;12.40;8.38;;;;;;;-0.80;67.16;100908.98;1739265;82;21158;-79
2021/01/12 05:08:18;;;;;;;7.15;4.35;;;;;;;-0.70;67.12;100915.16;1739325;82;21264;-80
2021/01/12 05:11:24;;;;;;;17.50;13.22;;;;;;;-0.64;66.19;100910.77;1748638;81;21240;-79
2021/01/12 05:14:33;;;;;;;16.07;12.80;;;;;;;-0.65;66.55;100902.31;1746985;81;21213;-80
2021/01/12 05:17:39;;;;;;;11.43;7.97;;;;;;;-0.69;66.31;100904.31;1712008;83;21308;-79
2021/01/12 05:20:53;;;;;;;11.68;10.13;;;;;;;-0.65;66.00;100906.34;1743740;82;21269;-80
2021/01/12 05:24:11;;;;;;;13.22;11.20;;;;;;;-0.62;66.65;100912.86;1727289;82;21253;-80
2021/01/12 05:27:19;;;;;;;15.60;13.28;;;;;;;-0.62;66.82;100930.33;1731805;82;22329;-79
2021/01/12 05:30:34;;;;;;;15.70;6.53;;;;;;;-0.66;67.37;100933.70;1729574;83;21308;-79
2021/01/12 05:33:40;;;;;;;11.22;6.67;;;;;;;-0.64;67.84;100921.51;1682813;85;21291;-80
2021/01/12 05:37:00;;;;;;;25.20;20.00;;;;;;;-0.61;68.17;100919.97;1665210;85;21287;-79
2021/01/12 05:40:05;;;;;;;12.20;8.13;;;;;;;-0.55;68.34;100914.25;1685205;85;21284;-79
2021/01/12 05:43:17;;;;;;;11.03;7.50;;;;;;;-0.50;68.34;100913.50;1710481;84;21307;-80
2021/01/12 05:46:23;;;;;;;17.02;12.23;;;;;;;-0.48;68.22;100916.95;1709970;84;21647;-80
2021/01/12 05:49:31;;;;;;;54.05;46.63;;;;;;;-0.49;67.89;100925.11;1709645;84;21192;-80
2021/01/12 05:52:37;;;;;;;25.97;17.90;;;;;;;-0.55;67.44;100927.69;1711341;84;21358;-79
2021/01/12 05:55:49;;;;;;;44.45;38.65;;;;;;;-0.61;67.72;100926.23;1725958;82;21246;-80
2021/01/12 05:58:57;;;;;;;26.95;23.87;;;;;;;-0.64;68.08;100910.77;1691034;83;21265;-80
2021/01/12 06:02:06;;;;;;;31.65;22.55;;;;;;;-0.66;68.22;100909.97;1713566;84;21200;-80
2021/01/12 06:05:20;;;;;;;24.57;20.17;;;;;;;-0.69;67.85;100912.85;1702877;83;21308;-80
2021/01/12 06:08:26;;;;;;;49.58;43.65;;;;;;;-0.76;67.04;100908.30;1709131;83;21257;-80
2021/01/12 06:11:33;;;;;;;24.30;18.95;;;;;;;-0.77;66.62;100902.06;1709245;83;21340;-81
2021/01/12 06:14:40;;;;;;;12.73;8.25;;;;;;;-0.80;66.63;100906.30;1703071;83;21339;-80
2021/01/12 06:17:46;;;;;;;13.25;8.23;;;;;;;-0.82;66.84;100902.81;1757171;79;21748;-80
2021/01/12 06:21:05;;;;;;;13.90;11.90;;;;;;;-0.85;67.18;100907.48;1792991;78;21308;-80
2021/01/12 06:24:18;;;;;;;14.20;11.30;;;;;;;-0.89;66.40;100904.14;1740976;82;21292;-79
2021/01/12 06:27:32;;;;;;;11.50;9.15;;;;;;;-0.84;66.33;100915.48;1729642;81;21278;-80
2021/01/12 06:30:38;;;;;;;8.48;6.00;;;;;;;-0.79;66.29;100924.13;1792575;78;21339;-80
2021/01/12 06:33:45;;;;;;;7.85;5.55;;;;;;;-0.76;66.62;100928.45;1791888;78;21335;-79
2021/01/12 06:37:03;;;;;;;10.10;6.40;;;;;;;-0.72;67.06;100933.17;1780018;79;21362;-80
2021/01/12 06:40:11;;;;;;;39.27;25.00;;;;;;;-0.75;67.70;100926.62;1779623;78;21823;-79
2021/01/12 06:43:15;;;;;;;14.85;12.13;;;;;;;-0.84;67.39;100935.63;1783332;78;21856;-79
2021/01/12 06:46:21;;;;;;;9.78;6.70;;;;;;;-0.79;67.04;100940.73;1792286;78;21314;-79
2021/01/12 06:49:30;;;;;;;10.53;6.90;;;;;;;-0.72;67.10;100931.34;1791260;78;21181;-79
2021/01/12 06:52:35;;;;;;;9.88;6.83;;;;;;;-0.70;67.51;100926.77;1783934;78;21319;-79
2021/01/12 06:55:41;;;;;;;10.63;7.10;;;;;;;-0.70;67.75;100931.28;1789088;78;21338;-79
2021/01/12 06:58:53;;;;;;;36.95;33.08;;;;;;;-0.70;68.28;100938.00;1788073;78;21799;-80
2021/01/12 07:02:00;;;;;;;16.23;11.57;;;;;;;-0.74;68.76;100941.81;1794661;78;21286;-80
2021/01/12 07:05:20;;;;;;;37.67;33.63;;;;;;;-0.73;68.98;100951.59;1791920;78;21280;-79
2021/01/12 07:08:29;;;;;;;16.07;11.28;;;;;;;-0.72;68.75;100934.03;1789462;79;22564;-79
2021/01/12 07:11:36;;;;;;;25.52;22.73;;;;;;;-0.70;68.02;100934.83;1785986;78;21279;-79
2021/01/12 07:14:42;;;;;;;14.20;11.30;;;;;;;-0.74;67.69;100923.00;1787474;78;21141;-79
2021/01/12 07:17:57;;;;;;;21.97;19.25;;;;;;;-0.73;67.72;100908.61;1785841;79;21887;-80
2021/01/12 07:21:05;;;;;;;14.18;9.45;;;;;;;-0.74;67.67;100909.58;1787561;78;21334;-79
2021/01/12 07:24:11;;;;;;;20.17;12.93;;;;;;;-0.71;67.72;100898.63;1801952;78;21205;-79
2021/01/12 07:27:19;;;;;;;14.68;9.98;;;;;;;-0.73;67.48;100886.64;1795825;78;21177;-78
2021/01/12 07:30:26;;;;;;;9.83;6.45;;;;;;;-0.73;68.15;100881.75;1777233;78;21307;-80
2021/01/12 07:33:37;;;;;;;14.68;9.60;;;;;;;-0.65;68.07;100860.67;1775537;79;21272;-80
2021/01/12 07:36:42;;;;;;;9.45;5.35;;;;;;;-0.58;67.24;100862.88;1786755;78;21311;-79
2021/01/12 07:39:47;;;;;;;11.00;6.60;;;;;;;-0.59;66.98;100880.45;1796534;78;21322;-79
2021/01/12 07:43:07;;;;;;;17.70;14.20;;;;;;;-0.69;67.84;100877.45;1790430;78;21898;-79
2021/01/12 07:46:12;;;;;;;14.38;9.75;;;;;;;-0.68;68.27;100860.84;1789620;78;21418;-80
2021/01/12 07:49:17;;;;;;;19.05;14.45;;;;;;;-0.70;68.10;100858.26;1804327;78;21323;-79
2021/01/12 07:52:27;;;;;;;14.70;12.25;;;;;;;-0.67;68.47;100872.83;1799572;78;21178;-80
2021/01/12 07:55:36;;;;;;;29.70;24.80;;;;;;;-0.67;68.51;100871.48;1786507;78;21186;-79
2021/01/12 07:58:43;;;;;;;21.52;18.95;;;;;;;-0.66;67.81;100873.70;1794597;78;21594;-79
2021/01/12 08:01:49;;;;;;;15.93;11.12;;;;;;;-0.72;67.53;100875.41;1786117;78;21239;-79
2021/01/12 08:04:57;;;;;;;16.77;12.18;;;;;;;-0.82;67.51;100868.38;1778474;79;21287;-80
2021/01/12 08:08:13;;;;;;;11.88;9.28;;;;;;;-0.86;68.20;100873.05;1795735;78;21353;-79
2021/01/12 08:11:18;;;;;;;17.12;14.07;;;;;;;-0.84;68.64;100874.33;1805134;78;21228;-80
2021/01/12 08:14:24;;;;;;;15.55;11.68;;;;;;;-0.84;68.07;100859.07;1800181;78;21205;-80
2021/01/12 08:17:32;;;;;;;11.22;8.60;;;;;;;-0.86;68.06;100867.68;1803972;78;21830;-79
2021/01/12 08:20:38;;;;;;;17.00;12.80;;;;;;;-0.88;67.14;100872.77;1791849;78;21885;-79
2021/01/12 08:23:44;;;;;;;16.67;13.38;;;;;;;-0.90;67.42;100870.16;1793355;78;21205;-79
2021/01/12 08:26:55;;;;;;;18.57;16.05;;;;;;;-0.88;68.00;100860.20;1793213;78;21376;-79
2021/01/12 08:30:00;;;;;;;13.80;11.50;;;;;;;-0.85;68.33;100843.92;1799017;78;21321;-80
2021/01/12 08:33:35;;;;;;;30.40;25.12;;;;;;;-0.79;68.32;100834.14;1792451;78;21732;-81
2021/01/12 08:36:44;;;;;;;23.85;15.18;;;;;;;-0.74;68.37;100830.33;1792091;78;21205;-83
2021/01/12 08:39:52;;;;;;;30.37;25.52;;;;;;;-0.74;68.31;100833.87;1793616;78;21287;-83
2021/01/12 08:42:57;;;;;;;64.20;54.63;;;;;;;-0.77;67.32;100844.79;1736119;81;21182;-80
2021/01/12 08:46:08;;;;;;;17.62;14.28;;;;;;;-0.85;67.21;100843.92;1726502;81;21178;-79
2021/01/12 08:49:13;;;;;;;12.30;9.55;;;;;;;-0.90;66.98;100844.64;1805437;78;21712;-80
2021/01/12 08:52:19;;;;;;;24.40;20.17;;;;;;;-0.88;67.65;100846.78;1721813;81;21901;-80
2021/01/12 08:55:30;;;;;;;28.50;23.25;;;;;;;-0.80;67.99;100836.45;1758696;78;21377;-81
2021/01/12 08:58:37;;;;;;;29.05;25.50;;;;;;;-0.82;68.33;100835.66;1748868;78;21326;-80
2021/01/12 09:01:44;;;;;;;33.40;28.50;;;;;;;-0.83;68.44;100833.94;1794841;78;21322;-81
2021/01/12 09:04:49;;;;;;;29.42;26.23;;;;;;;-0.85;68.46;100832.28;1798933;78;21342;-79
2021/01/12 09:08:06;;;;;;;40.52;35.10;;;;;;;-0.85;68.52;100824.22;1792975;78;21340;-80
2021/01/12 09:11:15;;;;;;;52.27;44.20;;;;;;;-0.84;68.11;100823.30;1792481;78;21561;-79
2021/01/12 09:14:21;;;;;;;38.23;32.50;;;;;;;-0.86;67.44;100822.02;1802644;78;21342;-80
2021/01/12 09:17:27;;;;;;;22.55;17.07;;;;;;;-0.92;67.34;100816.16;1735735;81;22621;-80
2021/01/12 09:20:34;;;;;;;23.83;16.60;;;;;;;-1.01;67.35;100807.30;1728776;81;21300;-79
2021/01/12 09:23:40;;;;;;;18.20;16.02;;;;;;;-1.08;67.12;100796.94;1727319;81;21279;-80
2021/01/12 09:26:45;;;;;;;9.55;7.37;;;;;;;-1.12;66.75;100779.27;1726284;81;21190;-82
2021/01/12 09:29:53;;;;;;;31.27;27.98;;;;;;;-1.09;67.32;100764.30;1723388;81;21887;-81
2021/01/12 09:32:59;;;;;;;10.20;7.20;;;;;;;-1.07;66.87;100757.52;1722194;81;21862;-80
2021/01/12 09:36:13;;;;;;;23.25;20.80;;;;;;;-1.08;67.17;100753.11;1710959;82;21351;-81
2021/01/12 09:39:21;;;;;;;14.65;10.95;;;;;;;-1.04;66.89;100749.27;1721108;81;21335;-80
2021/01/12 09:42:28;;;;;;;14.45;11.20;;;;;;;-1.04;66.93;100734.02;1724721;81;21301;-81
2021/01/12 09:45:37;;;;;;;16.25;14.43;;;;;;;-1.00;67.69;100726.64;1722032;81;21296;-80
2021/01/12 09:48:42;;;;;;;49.23;39.65;;;;;;;-0.98;68.22;100719.38;1751990;80;21725;-80
2021/01/12 09:51:48;;;;;;;18.50;15.63;;;;;;;-0.95;68.78;100715.63;1792082;78;21280;-81
2021/01/12 09:54:55;;;;;;;11.55;9.88;;;;;;;-0.97;68.87;100734.53;1793667;78;21807;-80
2021/01/12 09:58:00;;;;;;;28.27;25.27;;;;;;;-1.00;69.10;100720.41;1788986;78;21265;-81
2021/01/12 10:01:06;;;;;;;13.40;9.38;;;;;;;-1.08;69.01;100717.73;1807765;78;21281;-82
2021/01/12 10:04:13;;;;;;;15.25;11.50;;;;;;;-1.22;69.23;100707.41;1794902;78;21226;-80
2021/01/12 10:07:21;;;;;;;20.27;16.80;;;;;;;-1.34;69.39;100711.70;1795459;78;21303;-81
2021/01/12 10:10:28;;;;;;;9.45;7.47;;;;;;;-1.37;69.91;100699.30;1798217;78;21640;-80
2021/01/12 10:13:34;;;;;;;27.45;22.65;;;;;;;-1.40;69.76;100688.78;1792845;78;21490;-81
2021/01/12 10:16:39;;;;;;;47.73;41.10;;;;;;;-1.42;69.66;100698.72;1798578;78;21280;-81
2021/01/12 10:19:46;;;;;;;19.25;16.02;;;;;;;-1.39;68.25;100709.28;1793642;78;21300;-80
2021/01/12 10:22:52;;;;;;;29.32;24.85;;;;;;;-1.40;67.69;100682.06;1733948;81;21303;-81
2021/01/12 10:25:57;;;;;;;24.82;22.13;;;;;;;-1.37;67.36;100692.59;1792031;78;21267;-81
2021/01/12 10:29:05;;;;;;;30.57;26.77;;;;;;;-1.38;67.22;100688.19;1795341;78;21293;-80
2021/01/12 10:32:11;;;;;;;9.53;8.15;;;;;;;-1.42;66.81;100682.62;1784913;79;21299;-80
2021/01/12 10:35:19;;;;;;;13.68;7.35;;;;;;;-1.35;67.42;100675.09;1792262;78;21779;-83
2021/01/12 10:38:25;;;;;;;12.85;10.58;;;;;;;-1.21;67.70;100667.06;1799489;78;21645;-83
2021/01/12 10:41:32;;;;;;;10.38;5.83;;;;;;;-1.14;67.16;100674.26;1790048;78;21293;-82
2021/01/12 10:44:37;;;;;;;6.60;4.50;;;;;;;-1.08;66.18;100676.11;1795326;78;21327;-81
2021/01/12 10:47:43;;;;;;;18.45;16.20;;;;;;;-1.01;66.44;100675.25;1805278;78;21369;-82
2021/01/12 10:50:48;;;;;;;10.35;8.43;;;;;;;-0.87;66.29;100660.49;1791678;78;21295;-81
2021/01/12 10:53:53;;;;;;;39.78;35.58;;;;;;;-0.77;65.62;100680.45;1790733;78;21822;-80
2021/01/12 10:56:59;;;;;;;21.00;17.67;;;;;;;-0.74;64.46;100680.75;1779949;78;21295;-81
2021/01/12 11:00:09;;;;;;;9.80;6.62;;;;;;;-0.77;63.82;100664.33;1793853;78;21296;-81
2021/01/12 11:03:13;;;;;;;15.13;11.57;;;;;;;-0.77;64.05;100646.01;1790290;78;21232;-79
2021/01/12 11:06:21;;;;;;;22.93;19.45;;;;;;;-0.74;64.23;100648.52;1785832;78;21302;-81
2021/01/12 11:09:32;;;;;;;25.68;21.93;;;;;;;-0.71;63.54;100632.66;1735386;81;21299;-81
2021/01/12 11:12:38;;;;;;;19.62;11.30;;;;;;;-0.80;63.40;100634.99;1794631;78;21891;-81
2021/01/12 11:15:45;;;;;;;8.43;5.15;;;;;;;-0.88;64.46;100621.17;1792632;78;21321;-81
2021/01/12 11:18:53;;;;;;;16.23;13.10;;;;;;;-0.88;65.01;100631.91;1780604;78;21275;-81
2021/01/12 11:22:00;;;;;;;14.45;8.83;;;;;;;-0.91;64.84;100609.75;1792404;78;21303;-81
2021/01/12 11:25:07;;;;;;;15.85;13.18;;;;;;;-0.93;65.54;100609.86;1810635;78;21291;-81
2021/01/12 11:28:18;;;;;;;64.25;56.63;;;;;;;-0.96;65.54;100616.75;1801112;78;22381;-80
2021/01/12 11:31:26;;;;;;;17.87;14.38;;;;;;;-1.00;65.14;100605.81;1797782;79;21350;-81
2021/01/12 11:34:33;;;;;;;20.80;15.95;;;;;;;-1.08;65.53;100608.13;1802494;78;21299;-80
2021/01/12 11:37:39;;;;;;;34.33;30.45;;;;;;;-1.12;65.55;100613.30;1794503;78;21276;-81
2021/01/12 11:40:43;;;;;;;40.60;34.70;;;;;;;-1.08;65.99;100612.16;1796412;77;21345;-81
2021/01/12 11:43:49;;;;;;;12.78;10.13;;;;;;;-1.02;65.85;100612.25;1803325;78;21331;-81
2021/01/12 11:46:56;;;;;;;14.15;10.82;;;;;;;-1.02;66.48;100606.40;1794489;77;21290;-81
2021/01/12 11:50:07;;;;;;;11.40;8.40;;;;;;;-0.98;66.07;100598.55;1796238;78;21656;-81
2021/01/12 11:53:10;;;;;;;21.48;18.07;;;;;;;-0.97;65.90;100609.66;1805604;77;21898;-81
2021/01/12 11:56:15;;;;;;;11.43;8.15;;;;;;;-0.95;66.14;100622.50;1796329;78;21291;-81
2021/01/12 11:59:21;;;;;;;12.93;9.55;;;;;;;-1.02;66.66;100613.11;1800784;78;21850;-79
2021/01/12 12:02:29;;;;;;;19.10;15.55;;;;;;;-1.10;67.20;100611.38;1799786;77;21211;-81
2021/01/12 12:05:35;;;;;;;30.08;26.15;;;;;;;-1.12;66.87;100610.62;1798252;78;21172;-80
2021/01/12 12:08:43;;;;;;;29.63;25.95;;;;;;;-1.19;66.94;100606.57;1806385;78;21283;-80
2021/01/12 12:11:49;;;;;;;30.20;23.22;;;;;;;-1.32;67.72;100585.87;1803070;78;21353;-80
2021/01/12 12:14:56;;;;;;;23.52;18.92;;;;;;;-1.35;68.21;100572.63;1799069;78;21247;-81
2021/01/12 12:18:02;;;;;;;17.25;14.00;;;;;;;-1.36;68.40;100555.29;1783764;78;21205;-81
2021/01/12 12:21:11;;;;;;;39.18;32.15;;;;;;;-1.31;68.67;100557.20;1792885;78;21322;-81
2021/01/12 12:24:18;;;;;;;23.98;20.05;;;;;;;-1.27;67.86;100561.43;1786468;78;21284;-80
2021/01/12 12:27:27;;;;;;;30.75;23.47;;;;;;;-1.21;67.95;100557.50;1795635;78;21311;-81
2021/01/12 12:30:33;;;;;;;22.27;16.90;;;;;;;-1.15;68.38;100566.50;1792632;78;21787;-80
2021/01/12 12:33:38;;;;;;;20.57;16.32;;;;;;;-1.08;68.30;100559.81;1783832;78;21285;-81
2021/01/12 12:36:44;;;;;;;20.40;12.98;;;;;;;-1.05;68.00;100547.03;1791212;78;21279;-80
2021/01/12 12:39:49;;;;;;;21.17;13.95;;;;;;;-1.04;68.26;100549.23;1795570;78;21288;-81
2021/01/12 12:42:56;;;;;;;44.80;33.45;;;;;;;-1.01;68.35;100559.78;1795889;78;21271;-80
2021/01/12 12:46:04;;;;;;;19.23;13.20;;;;;;;-1.00;67.89;100542.71;1728997;81;21314;-81
2021/01/12 12:49:09;;;;;;;55.63;44.85;;;;;;;-1.03;67.59;100552.32;1724404;81;21158;-81
2021/01/12 12:52:16;;;;;;;37.90;30.65;;;;;;;-1.03;67.74;100555.01;1731631;81;21904;-80
2021/01/12 12:55:23;;;;;;;20.25;15.13;;;;;;;-1.07;67.85;100552.13;1732939;81;21246;-81
2021/01/12 12:58:30;;;;;;;18.77;14.18;;;;;;;-1.09;68.84;100538.78;1725457;81;21195;-81
2021/01/12 13:01:36;;;;;;;44.20;35.92;;;;;;;-1.08;68.47;100531.13;1798539;78;21300;-79
2021/01/12 13:04:43;;;;;;;17.10;11.08;;;;;;;-1.09;68.59;100517.30;1789625;78;21347;-79
2021/01/12 13:07:51;;;;;;;34.00;26.12;;;;;;;-1.12;68.34;100526.05;1790838;78;21165;-80
2021/01/12 13:10:57;;;;;;;18.87;12.68;;;;;;;-1.19;68.93;100530.06;1792847;78;21293;-80
2021/01/12 13:14:04;;;;;;;26.35;16.30;;;;;;;-1.24;68.98;100516.08;1795811;78;21800;-81
2021/01/12 13:17:10;;;;;;;30.92;24.37;;;;;;;-1.26;69.25;100531.42;1793640;78;21168;-80
2021/01/12 13:20:16;;;;;;;20.90;14.80;;;;;;;-1.26;69.07;100518.00;1800211;78;21153;-81
2021/01/12 13:23:23;;;;;;;32.42;18.10;;;;;;;-1.27;69.32;100502.83;1728516;81;21300;-81
2021/01/12 13:26:47;;;;;;;15.68;10.05;;;;;;;-1.29;69.56;100497.58;1806711;77;21471;-81
2021/01/12 13:29:53;;;;;;;41.02;30.82;;;;;;;-1.29;69.27;100499.77;1806238;78;21275;-81
2021/01/12 13:32:59;;;;;;;15.90;8.68;;;;;;;-1.31;69.15;100508.90;1795535;78;21161;-81
2021/01/12 13:36:04;;;;;;;10.23;6.33;;;;;;;-1.34;69.66;100488.95;1796033;78;21310;-79
2021/01/12 13:39:14;;;;;;;15.78;7.95;;;;;;;-1.42;70.00;100476.48;1803968;77;21292;-80
2021/01/12 13:42:21;;;;;;;11.57;6.37;;;;;;;-1.44;70.31;100479.27;1737402;81;21303;-79
2021/01/12 13:45:28;;;;;;;18.05;11.35;;;;;;;-1.48;70.61;100483.10;1737252;81;21311;-80
2021/01/12 13:48:34;;;;;;;16.12;8.28;;;;;;;-1.58;70.52;100480.61;1722098;80;21293;-82
2021/01/12 13:51:47;;;;;;;20.77;9.45;;;;;;;-1.64;70.85;100478.31;1745813;80;21940;-81
2021/01/12 13:54:57;;;;;;;13.88;8.35;;;;;;;-1.75;71.10;100475.41;1724698;81;21743;-82
2021/01/12 13:58:16;;;;;;;16.52;8.10;;;;;;;-1.82;71.47;100461.05;1730859;81;21214;-80
2021/01/12 14:01:24;;;;;;;13.93;8.10;;;;;;;-1.86;71.68;100464.02;1738057;81;21130;-81
2021/01/12 14:04:31;;;;;;;20.55;9.03;;;;;;;-1.91;72.05;100464.77;1742019;80;21323;-82
2021/01/12 14:07:51;;;;;;;16.12;9.80;;;;;;;-1.92;72.28;100467.94;1737342;81;21846;-83
2021/01/12 14:10:58;;;;;;;18.10;7.42;;;;;;;-1.93;72.45;100458.17;1740375;81;21883;-80
2021/01/12 14:14:05;;;;;;;24.15;8.58;;;;;;;-1.95;72.61;100449.83;1730099;81;21389;-81
2021/01/12 14:17:11;;;;;;;20.32;10.18;;;;;;;-1.98;72.90;100454.88;1734715;80;21277;-82